Allison, Pennsylvania
Current Conditions -  °F | °C
As of 4:13 AM on Saturday 01 Nov 2014 (Local Time) from KMGW Reporting Station
Haze Haze  
Wind Chill: 40°   Ceiling: 500
Heat Index: 43°   Visibility: 5mi
Dew Point: 39°   Wind: 5mph
Humidity: 86%   Direction: 20°NNE
Pressure: 29.86"   Gusts: NA
Location:  39.99°N, 79.86°W
Report Text: KMGW 010813Z AUTO 02004KT 5SM BR BKN005 OVC031 06/04 A2986 RMK AO2 CIG 003V009 T00610039 TSNO
Loading
Personal Weather Stations






























Interactive Weather Map New forecast layout! Learn more

10-Day Weather Forecast

Advertisements
Track Severe Weather on mobile